Verdi, Minnesota
Current Conditions -  °F | °C
As of 3:14 PM on Saturday 22 Nov 2014 (Local Time) from KPQN Reporting Station
Haze Haze  
Wind Chill: 26°   Ceiling: 200
Heat Index: 36°   Visibility: 0.75mi
Dew Point: 36°   Wind: 16mph
Humidity: 100%   Direction: 180°S
Pressure: 29.52"   Gusts: 22mph
Location:  44.066°N, 96.3302°W
Report Text: KPQN 222114Z AUTO 18014G19KT 3/4SM BR OVC002 02/02 A2952 RMK AO2
Loading
Personal Weather Stations






























Interactive Weather Map New forecast layout! Learn more

10-Day Weather Forecast

Advertisements
Track Severe Weather on mobile